Time;durP1;ratioP1;P1;durP2;ratioP2;P2;SDS_P1;SDS_P2;PMS_P1;PMS_P2;Temp;Humidity;BMP_temperature;BMP_pressure;BME280_temperature;BME280_humidity;BME280_pressure;Samples;Min_cycle;Max_cycle;Signal;HPM_P1;HPM_P2
2023/06/02 00:02:16;;;;;;;181.18;64.60;;;;;;;17.87;59.26;101705.19;4988446;28;20026;-77
2023/06/02 00:04:41;;;;;;;183.68;64.75;;;;;;;17.86;59.76;101700.81;5011383;28;20030;-77
2023/06/02 00:07:07;;;;;;;184.60;65.75;;;;;;;17.86;59.38;101707.84;5010389;28;20399;-77
2023/06/02 00:09:38;;;;;;;184.00;66.55;;;;;;;17.86;60.26;101710.50;5012854;28;20109;-78
2023/06/02 00:12:03;;;;;;;184.93;65.35;;;;;;;17.86;60.53;101705.19;4995251;28;20026;-77
2023/06/02 00:14:30;;;;;;;185.07;65.43;;;;;;;17.86;61.84;101698.16;4994097;28;20033;-77
2023/06/02 00:17:00;;;;;;;185.38;66.22;;;;;;;17.87;62.38;101701.66;4993925;28;20022;-77
2023/06/02 00:19:30;;;;;;;181.30;64.65;;;;;;;17.86;62.16;101692.88;4994073;28;20096;-76
2023/06/02 00:21:56;;;;;;;195.38;67.90;;;;;;;17.86;62.12;101695.50;4996024;28;20025;-76
2023/06/02 00:24:22;;;;;;;191.85;67.32;;;;;;;17.85;62.16;101699.06;4970783;28;20081;-77
2023/06/02 00:26:47;;;;;;;186.07;66.25;;;;;;;17.87;62.42;101693.72;4973757;28;20034;-76
2023/06/02 00:29:12;;;;;;;180.32;64.63;;;;;;;17.85;61.53;101698.22;5009611;28;20100;-76
2023/06/02 00:31:38;;;;;;;186.35;64.45;;;;;;;17.83;61.86;101700.00;4992268;28;20542;-76
2023/06/02 00:34:03;;;;;;;189.82;65.00;;;;;;;17.83;61.35;101700.00;4972312;28;20033;-76
2023/06/02 00:36:29;;;;;;;187.40;65.28;;;;;;;17.82;61.52;101698.28;4991624;28;20049;-76
2023/06/02 00:38:54;;;;;;;180.77;65.40;;;;;;;17.82;60.85;101690.34;5007130;28;20109;-76
2023/06/02 00:41:20;;;;;;;177.95;63.47;;;;;;;17.84;61.46;101691.19;5006815;28;20503;-77
2023/06/02 00:43:45;;;;;;;187.32;66.68;;;;;;;17.83;61.00;101694.72;4991473;28;20417;-76
2023/06/02 00:46:11;;;;;;;186.77;65.60;;;;;;;17.81;61.02;101697.44;4971321;28;20045;-76
2023/06/02 00:48:36;;;;;;;180.98;64.65;;;;;;;17.83;61.00;101689.44;4991364;28;20443;-77
2023/06/02 00:51:02;;;;;;;181.27;63.90;;;;;;;17.83;61.30;101694.72;4990381;28;20040;-76
2023/06/02 00:53:27;;;;;;;178.98;64.50;;;;;;;17.82;61.32;101703.56;4994723;28;20065;-77
2023/06/02 00:55:53;;;;;;;178.13;63.45;;;;;;;17.83;60.98;101705.31;4997721;28;20069;-76
2023/06/02 00:58:19;;;;;;;180.35;64.53;;;;;;;17.81;61.20;101702.72;5001519;28;20026;-76
2023/06/02 01:00:46;;;;;;;180.10;64.45;;;;;;;17.81;61.10;101704.50;5009463;28;20455;-76
2023/06/02 01:03:14;;;;;;;183.73;64.03;;;;;;;17.79;61.26;101701.03;4980938;28;20022;-76
2023/06/02 01:05:40;;;;;;;184.13;64.75;;;;;;;17.80;61.21;101708.03;4991035;28;20053;-77
2023/06/02 01:08:07;;;;;;;180.68;64.53;;;;;;;17.81;61.11;101707.16;4976134;28;20452;-75
2023/06/02 01:10:32;;;;;;;179.68;63.95;;;;;;;17.80;60.92;101711.53;4988202;28;20094;-76
2023/06/02 01:12:58;;;;;;;180.63;63.78;;;;;;;17.77;61.84;101705.50;4991950;28;20026;-77
2023/06/02 01:15:23;;;;;;;183.73;64.15;;;;;;;17.80;61.04;101715.97;4991861;28;20037;-77
2023/06/02 01:17:50;;;;;;;182.88;62.92;;;;;;;17.79;61.96;101716.88;4992575;28;20057;-78
2023/06/02 01:20:21;;;;;;;180.38;63.83;;;;;;;17.78;61.92;101715.16;4968679;28;20514;-77
2023/06/02 01:23:15;;;;;;;188.02;65.00;;;;;;;17.79;62.25;101715.09;4990695;28;20080;-77
2023/06/02 01:25:41;;;;;;;178.95;63.58;;;;;;;17.78;62.11;101725.72;4988578;28;20476;-76
2023/06/02 01:28:06;;;;;;;185.10;65.10;;;;;;;17.78;61.51;101726.59;4979815;28;20033;-77
2023/06/02 01:30:32;;;;;;;180.02;63.70;;;;;;;17.77;61.44;101724.84;4992250;28;20077;-76
2023/06/02 01:33:42;;;;;;;183.77;64.07;;;;;;;17.76;61.21;101720.47;4989451;28;20041;-77
2023/06/02 01:36:08;;;;;;;187.30;66.82;;;;;;;17.78;61.19;101715.16;4915671;29;20366;-77
2023/06/02 01:38:35;;;;;;;184.40;65.10;;;;;;;17.76;61.22;101716.97;4979288;28;20045;-77
2023/06/02 01:41:02;;;;;;;178.52;62.58;;;;;;;17.77;61.50;101718.72;4991428;28;20485;-77
2023/06/02 01:43:29;;;;;;;185.27;65.10;;;;;;;17.75;61.66;101710.81;4993376;28;20077;-77
2023/06/02 01:45:56;;;;;;;181.75;64.50;;;;;;;17.76;61.83;101707.25;4973307;28;20456;-77
2023/06/02 01:48:21;;;;;;;179.50;64.05;;;;;;;17.74;62.00;101707.31;4978151;28;20113;-77
2023/06/02 01:50:47;;;;;;;182.60;65.53;;;;;;;17.74;62.03;101712.59;4999965;28;20173;-77
2023/06/02 01:53:12;;;;;;;184.43;63.50;;;;;;;17.74;61.86;101714.38;4975949;28;20074;-77
2023/06/02 01:55:39;;;;;;;182.55;66.30;;;;;;;17.74;62.36;101711.75;4992163;28;20471;-77
2023/06/02 01:58:04;;;;;;;184.07;64.18;;;;;;;17.75;63.23;101713.44;4992806;28;20442;-77
2023/06/02 02:00:29;;;;;;;180.95;64.18;;;;;;;17.72;62.79;101711.78;4977374;28;20033;-77
2023/06/02 02:02:57;;;;;;;174.23;64.05;;;;;;;17.71;62.66;101712.69;4988456;28;20483;-77
2023/06/02 02:05:23;;;;;;;193.75;65.97;;;;;;;17.71;62.80;101706.53;5005442;28;20402;-77
2023/06/02 02:07:50;;;;;;;181.40;65.38;;;;;;;17.72;62.94;101714.44;4990613;28;20030;-77
2023/06/02 02:10:16;;;;;;;182.93;65.90;;;;;;;17.72;62.53;101716.19;4974626;28;20022;-77
2023/06/02 02:12:41;;;;;;;188.20;66.20;;;;;;;17.71;62.75;101710.06;4979106;28;20429;-76
2023/06/02 02:15:07;;;;;;;182.20;64.70;;;;;;;17.71;62.35;101712.69;4991333;28;20030;-77
2023/06/02 02:17:33;;;;;;;181.98;66.50;;;;;;;17.71;62.62;101712.69;4988146;28;20101;-76
2023/06/02 02:19:59;;;;;;;179.52;65.45;;;;;;;17.70;62.19;101707.47;4990100;28;20894;-75
2023/06/02 02:22:24;;;;;;;181.30;64.57;;;;;;;17.70;62.28;101710.97;5009148;28;20030;-76
2023/06/02 02:24:50;;;;;;;187.98;64.07;;;;;;;17.67;62.59;101711.06;5008603;28;20061;-77
2023/06/02 02:27:15;;;;;;;185.57;64.88;;;;;;;17.69;62.17;101709.22;4991639;28;20148;-77
2023/06/02 02:29:41;;;;;;;180.07;63.90;;;;;;;17.70;62.00;101710.97;4990424;28;20689;-76
2023/06/02 02:32:07;;;;;;;180.27;64.35;;;;;;;17.69;62.22;101709.22;4992498;28;20489;-76
2023/06/02 02:34:38;;;;;;;185.73;64.05;;;;;;;17.68;61.90;101704.88;4989463;28;20061;-76
2023/06/02 02:37:06;;;;;;;178.85;62.60;;;;;;;17.67;62.32;101700.50;4987487;28;20066;-77
2023/06/02 02:39:33;;;;;;;189.98;66.05;;;;;;;17.68;62.32;101704.88;4988048;28;20050;-76
2023/06/02 02:41:58;;;;;;;183.57;65.30;;;;;;;17.67;62.09;101707.53;4990590;28;20137;-76
2023/06/02 02:44:24;;;;;;;183.25;65.53;;;;;;;17.67;62.22;101705.78;4998104;28;20173;-76
2023/06/02 02:46:49;;;;;;;188.77;66.70;;;;;;;17.66;62.03;101708.47;4981509;28;20664;-77
2023/06/02 02:49:14;;;;;;;183.73;65.93;;;;;;;17.65;62.14;101701.44;4997559;28;20029;-77
2023/06/02 02:51:40;;;;;;;181.90;63.20;;;;;;;17.64;62.29;101713.81;4993645;28;20053;-77
2023/06/02 02:54:05;;;;;;;189.10;65.53;;;;;;;17.61;62.60;101703.31;4997473;28;20033;-77
2023/06/02 02:56:32;;;;;;;184.52;64.40;;;;;;;17.64;62.33;101711.16;4994525;28;20030;-77
2023/06/02 02:58:58;;;;;;;180.50;63.53;;;;;;;17.64;62.05;101710.28;4973214;28;20034;-76
2023/06/02 03:01:24;;;;;;;189.35;64.60;;;;;;;17.64;62.28;101727.00;4990284;28;20076;-76
2023/06/02 03:03:50;;;;;;;183.57;64.15;;;;;;;17.66;62.63;101716.41;4981132;28;20400;-77
2023/06/02 03:06:18;;;;;;;183.00;65.65;;;;;;;17.64;62.50;101719.09;4989611;28;20506;-77
2023/06/02 03:08:44;;;;;;;188.88;64.53;;;;;;;17.65;62.82;101723.44;4989127;28;20117;-76
2023/06/02 03:11:11;;;;;;;180.60;63.80;;;;;;;17.66;63.21;101725.19;4975384;28;20077;-77
2023/06/02 03:13:36;;;;;;;183.93;63.03;;;;;;;17.65;63.47;101718.16;4970273;28;20030;-76
2023/06/02 03:16:02;;;;;;;180.30;64.28;;;;;;;17.67;63.21;101723.38;4981671;28;20116;-77
2023/06/02 03:18:28;;;;;;;178.52;63.72;;;;;;;17.67;63.12;101720.75;4994971;28;20041;-77
2023/06/02 03:20:54;;;;;;;186.32;65.53;;;;;;;17.68;63.71;101717.19;4990364;28;20026;-75
2023/06/02 03:23:19;;;;;;;183.82;67.45;;;;;;;17.69;63.82;101730.38;4989976;28;20025;-76
2023/06/02 03:25:46;;;;;;;183.02;63.70;;;;;;;17.69;63.58;101727.72;4975321;28;20026;-77
2023/06/02 03:28:11;;;;;;;198.98;66.60;;;;;;;17.68;63.21;101723.38;4972640;28;20061;-76
2023/06/02 03:30:37;;;;;;;185.82;64.70;;;;;;;17.71;63.10;101739.13;4991846;28;20062;-78
2023/06/02 03:33:02;;;;;;;177.25;63.17;;;;;;;17.74;63.30;101739.03;4973727;28;20026;-76
2023/06/02 03:35:28;;;;;;;178.50;62.88;;;;;;;17.75;63.04;101739.88;4992016;28;20026;-76
2023/06/02 03:37:53;;;;;;;184.38;65.63;;;;;;;17.76;62.78;101736.34;4987556;28;20085;-76
2023/06/02 03:40:19;;;;;;;182.77;63.97;;;;;;;17.79;62.82;101741.50;4972947;28;20097;-75
2023/06/02 03:42:44;;;;;;;180.95;64.72;;;;;;;17.78;62.83;101739.81;4991602;28;20023;-76
2023/06/02 03:45:10;;;;;;;180.63;64.10;;;;;;;17.79;62.91;101745.94;4983219;28;20019;-76
2023/06/02 03:47:35;;;;;;;191.98;66.82;;;;;;;17.80;63.17;101740.63;4995938;28;20029;-76
2023/06/02 03:50:01;;;;;;;179.95;63.75;;;;;;;17.81;62.95;101742.34;4991687;28;20033;-76
2023/06/02 03:52:26;;;;;;;181.52;63.42;;;;;;;17.82;62.50;101745.84;4991909;28;20060;-76
2023/06/02 03:54:52;;;;;;;187.70;66.18;;;;;;;17.83;63.36;101747.59;4992137;28;20041;-78
2023/06/02 03:57:18;;;;;;;192.35;66.50;;;;;;;17.86;63.56;101752.78;4990654;28;20040;-77
2023/06/02 03:59:43;;;;;;;184.48;64.60;;;;;;;17.85;62.90;101751.06;5014728;28;20551;-77
2023/06/02 04:02:08;;;;;;;182.02;63.30;;;;;;;17.86;63.06;101753.66;4995869;28;20113;-76
2023/06/02 04:04:36;;;;;;;180.75;65.28;;;;;;;17.88;62.71;101757.09;4999119;28;20033;-78
2023/06/02 04:07:02;;;;;;;181.02;64.65;;;;;;;17.90;63.07;101754.41;5003105;28;20030;-77
2023/06/02 04:09:27;;;;;;;182.38;63.70;;;;;;;17.89;62.57;101753.56;4994609;28;20026;-76
2023/06/02 04:11:52;;;;;;;178.18;63.60;;;;;;;17.90;62.00;101759.69;4995294;28;20022;-76
2023/06/02 04:14:18;;;;;;;189.57;64.53;;;;;;;17.91;62.67;101756.16;4994190;28;20026;-77
2023/06/02 04:16:43;;;;;;;182.20;63.67;;;;;;;17.94;62.00;101766.66;4989205;28;20097;-76
2023/06/02 04:19:08;;;;;;;182.07;64.78;;;;;;;17.97;62.07;101768.34;4992931;28;20061;-75
2023/06/02 04:21:34;;;;;;;189.25;65.20;;;;;;;17.98;62.00;101762.16;4991223;28;20030;-77
2023/06/02 04:23:59;;;;;;;187.23;65.05;;;;;;;17.98;62.02;101760.34;4993293;28;20072;-76
2023/06/02 04:26:24;;;;;;;189.77;65.57;;;;;;;18.00;61.83;101765.63;4990905;28;20096;-76
2023/06/02 04:28:51;;;;;;;190.50;66.20;;;;;;;18.01;61.79;101773.50;4988625;28;20510;-76
2023/06/02 04:31:26;;;;;;;178.75;63.03;;;;;;;18.01;61.73;101768.22;4988367;28;20026;-77
2023/06/02 04:33:55;;;;;;;185.18;66.32;;;;;;;18.06;61.57;101776.88;4990242;28;20344;-76
2023/06/02 04:36:20;;;;;;;184.15;65.38;;;;;;;18.08;62.04;101780.34;4974720;28;20022;-77
2023/06/02 04:38:46;;;;;;;189.00;65.88;;;;;;;18.10;61.17;101776.78;4974054;28;20121;-76
2023/06/02 04:41:11;;;;;;;183.98;65.57;;;;;;;18.11;61.60;101781.16;4994272;28;20041;-77
2023/06/02 04:43:38;;;;;;;186.02;65.75;;;;;;;18.14;61.19;101778.41;4978434;28;20029;-76
2023/06/02 04:46:06;;;;;;;181.30;63.92;;;;;;;18.16;61.32;101787.16;4991264;28;20495;-76
2023/06/02 04:48:31;;;;;;;187.75;64.72;;;;;;;18.17;61.51;101779.16;4993161;28;20064;-76
2023/06/02 04:50:56;;;;;;;195.63;66.18;;;;;;;18.20;60.87;101767.63;4987479;28;20092;-75
2023/06/02 04:53:22;;;;;;;185.20;64.25;;;;;;;18.21;61.02;101775.50;4990647;28;20023;-76
2023/06/02 04:55:47;;;;;;;187.05;65.43;;;;;;;18.23;60.85;101765.78;4990098;28;20409;-76
2023/06/02 04:58:13;;;;;;;191.23;64.95;;;;;;;18.26;61.23;101769.25;4999099;28;20360;-76
2023/06/02 05:00:38;;;;;;;183.70;64.07;;;;;;;18.29;61.03;101771.78;4991327;28;20062;-76
2023/06/02 05:03:03;;;;;;;201.25;66.97;;;;;;;18.29;60.85;101771.78;4971461;28;20026;-77
2023/06/02 05:05:29;;;;;;;186.85;66.20;;;;;;;18.33;60.37;101769.00;4993957;28;20491;-77
2023/06/02 05:07:54;;;;;;;175.98;63.72;;;;;;;18.34;61.21;101776.00;4994911;28;20022;-77
2023/06/02 05:10:20;;;;;;;182.75;64.50;;;;;;;18.35;60.89;101780.41;4977397;28;20050;-77
2023/06/02 05:12:47;;;;;;;190.68;65.45;;;;;;;18.37;60.07;101797.06;4993875;28;20038;-77
2023/06/02 05:15:12;;;;;;;181.45;62.42;;;;;;;18.43;60.28;101798.66;4977363;28;20077;-77
2023/06/02 05:17:38;;;;;;;175.90;61.88;;;;;;;18.45;60.47;101806.53;4994751;28;20038;-77
2023/06/02 05:20:05;;;;;;;176.05;61.15;;;;;;;18.49;59.75;101817.00;4996188;28;20064;-77
2023/06/02 05:22:30;;;;;;;175.32;62.05;;;;;;;18.52;59.05;101811.59;4990862;28;20038;-77
2023/06/02 05:24:55;;;;;;;185.82;64.80;;;;;;;18.57;59.67;101814.09;4974905;28;20027;-76
2023/06/02 05:27:21;;;;;;;176.23;64.68;;;;;;;18.58;59.62;101811.41;4998693;28;20030;-77
2023/06/02 05:29:46;;;;;;;183.63;67.75;;;;;;;18.64;59.74;101818.28;4975324;28;20033;-76
2023/06/02 05:32:11;;;;;;;187.40;64.05;;;;;;;18.67;59.38;101814.66;4987730;28;20034;-76
2023/06/02 05:34:37;;;;;;;180.13;62.05;;;;;;;18.72;59.00;101818.03;4990162;28;20026;-77
2023/06/02 05:37:02;;;;;;;183.38;62.72;;;;;;;18.82;58.74;101826.53;4975235;28;20076;-78
2023/06/02 05:39:28;;;;;;;180.85;63.65;;;;;;;18.80;58.80;101820.41;5002904;28;20053;-77
2023/06/02 05:41:53;;;;;;;172.98;60.88;;;;;;;18.74;59.26;101818.84;4976787;28;20129;-77
2023/06/02 05:44:19;;;;;;;198.98;65.38;;;;;;;18.70;59.22;101826.00;4993071;28;20014;-78
2023/06/02 05:46:44;;;;;;;186.20;63.30;;;;;;;18.68;59.28;101827.84;4991933;28;20451;-77
2023/06/02 05:49:09;;;;;;;180.60;66.75;;;;;;;18.72;59.11;101823.34;4977991;28;20547;-77
2023/06/02 05:51:35;;;;;;;184.55;62.67;;;;;;;18.80;58.68;101825.72;4997323;28;20022;-77
2023/06/02 05:54:00;;;;;;;183.02;62.25;;;;;;;18.86;58.47;101820.22;5001965;28;20030;-77
2023/06/02 05:56:26;;;;;;;179.48;61.53;;;;;;;18.89;58.50;101826.28;5012568;28;20022;-76
2023/06/02 05:58:51;;;;;;;194.05;64.22;;;;;;;18.97;58.20;101830.50;4994774;28;20038;-77
2023/06/02 06:01:17;;;;;;;170.13;60.70;;;;;;;19.04;58.61;101834.66;5037088;22;20157;-74
2023/06/02 06:03:42;;;;;;;181.35;62.55;;;;;;;19.01;58.52;101830.31;5027873;28;20021;-74
2023/06/02 06:06:08;;;;;;;179.48;62.85;;;;;;;19.07;58.48;101830.13;5029762;28;20398;-75
2023/06/02 06:08:33;;;;;;;176.23;60.75;;;;;;;19.21;57.97;101844.66;5029345;28;20124;-76
2023/06/02 06:10:59;;;;;;;181.60;61.75;;;;;;;19.29;57.36;101834.66;5018117;28;20029;-74
2023/06/02 06:13:24;;;;;;;180.60;62.15;;;;;;;19.32;57.73;101833.69;5011641;28;20533;-74
2023/06/02 06:15:50;;;;;;;190.43;63.80;;;;;;;19.27;57.48;101836.53;5010717;28;20549;-74
2023/06/02 06:18:15;;;;;;;179.73;62.30;;;;;;;19.23;57.90;101834.91;5011135;28;20033;-74
2023/06/02 06:20:43;;;;;;;200.80;65.85;;;;;;;19.28;57.51;101842.66;5013617;28;20029;-74
2023/06/02 06:23:10;;;;;;;183.75;62.60;;;;;;;19.28;57.77;101843.56;5004376;28;20076;-74
2023/06/02 06:25:36;;;;;;;178.43;62.35;;;;;;;19.27;57.70;101843.63;5014486;28;20029;-74
2023/06/02 06:28:01;;;;;;;182.75;64.93;;;;;;;19.24;57.83;101852.53;5032830;28;20037;-74
2023/06/02 06:30:26;;;;;;;179.57;62.25;;;;;;;19.20;57.62;101856.19;5009595;28;20488;-74
2023/06/02 06:32:52;;;;;;;187.68;72.10;;;;;;;19.15;57.93;101847.53;5013938;28;20487;-75
2023/06/02 06:35:17;;;;;;;181.82;62.17;;;;;;;19.12;57.92;101856.44;5016661;28;20174;-74
2023/06/02 06:37:42;;;;;;;186.00;63.60;;;;;;;19.08;58.26;101858.31;5014349;28;20475;-74
2023/06/02 06:40:09;;;;;;;184.15;62.72;;;;;;;19.03;58.15;101860.28;5028660;28;20111;-75
2023/06/02 06:42:34;;;;;;;175.75;61.72;;;;;;;19.00;58.05;101859.50;5010136;28;20033;-75
2023/06/02 06:45:00;;;;;;;180.25;61.95;;;;;;;18.98;58.29;101861.31;5024749;28;20124;-75
2023/06/02 06:47:25;;;;;;;186.32;62.10;;;;;;;18.95;58.09;101858.78;5030160;28;20071;-75
2023/06/02 06:49:51;;;;;;;177.57;62.47;;;;;;;18.95;57.97;101859.66;5011850;28;20458;-75
2023/06/02 06:52:17;;;;;;;178.05;62.95;;;;;;;18.96;58.43;101857.88;5014668;28;20064;-75
2023/06/02 06:54:42;;;;;;;179.10;62.63;;;;;;;18.98;58.38;101862.22;4994972;28;20049;-75
2023/06/02 06:57:09;;;;;;;189.50;61.53;;;;;;;19.07;58.33;101871.63;5010885;28;20060;-75
2023/06/02 06:59:35;;;;;;;170.20;60.10;;;;;;;19.09;58.10;101870.66;5024853;28;20037;-75
2023/06/02 07:02:00;;;;;;;183.95;61.00;;;;;;;19.14;57.91;101872.28;5007240;28;20037;-75
2023/06/02 07:04:25;;;;;;;176.98;61.63;;;;;;;19.19;57.98;101870.34;5011193;28;20022;-75
2023/06/02 07:06:51;;;;;;;184.82;62.42;;;;;;;19.21;58.26;101873.78;5009615;28;20055;-75
2023/06/02 07:09:16;;;;;;;190.23;62.97;;;;;;;19.20;58.14;101872.09;5009065;28;20030;-74
2023/06/02 07:11:41;;;;;;;178.02;62.30;;;;;;;19.20;58.02;101880.88;5008937;28;20025;-74
2023/06/02 07:14:07;;;;;;;189.75;63.83;;;;;;;19.26;57.88;101882.47;5011424;28;20032;-74
2023/06/02 07:16:32;;;;;;;174.35;61.05;;;;;;;19.24;58.67;101884.31;5009679;28;20065;-75
2023/06/02 07:18:58;;;;;;;188.20;64.05;;;;;;;19.22;58.58;101892.31;5015576;28;20026;-74
2023/06/02 07:21:23;;;;;;;181.30;61.35;;;;;;;19.40;57.80;101896.13;5015024;28;20394;-74
2023/06/02 07:23:48;;;;;;;181.23;62.90;;;;;;;19.61;56.42;101898.94;5017149;28;20045;-75
2023/06/02 07:26:15;;;;;;;174.98;60.75;;;;;;;19.74;56.07;101894.94;4998542;28;20075;-74
2023/06/02 07:28:40;;;;;;;188.68;63.45;;;;;;;19.75;55.92;101896.63;5015589;28;20537;-74
2023/06/02 07:31:05;;;;;;;186.70;63.20;;;;;;;19.70;56.35;101898.63;5028419;28;20121;-75
2023/06/02 07:33:31;;;;;;;182.57;64.40;;;;;;;19.59;56.44;101903.41;5015562;28;20110;-75
2023/06/02 07:35:56;;;;;;;174.13;61.33;;;;;;;19.50;57.59;101906.41;5015938;28;20021;-74
2023/06/02 07:38:22;;;;;;;176.02;61.75;;;;;;;19.41;57.92;101910.22;5002104;28;20083;-75
2023/06/02 07:40:48;;;;;;;185.13;62.45;;;;;;;19.39;58.36;101910.28;5003657;28;20029;-74
2023/06/02 07:43:13;;;;;;;179.48;62.90;;;;;;;19.41;58.18;101924.34;5016090;28;20018;-74
2023/06/02 07:45:38;;;;;;;182.63;63.70;;;;;;;19.43;58.65;101916.34;4993754;28;20442;-77
2023/06/02 07:48:04;;;;;;;183.55;63.65;;;;;;;19.58;58.22;101928.19;5032398;28;20022;-75
2023/06/02 07:50:29;;;;;;;180.40;61.85;;;;;;;19.53;58.37;101928.34;5012573;28;20049;-73
2023/06/02 07:52:55;;;;;;;186.10;62.70;;;;;;;19.50;58.06;101919.66;4999991;28;20033;-73
2023/06/02 07:55:20;;;;;;;176.52;60.45;;;;;;;19.50;58.17;101924.94;5017438;28;20049;-73
2023/06/02 07:57:46;;;;;;;182.02;62.60;;;;;;;19.57;58.28;101923.81;5001410;28;20026;-77
2023/06/02 08:00:16;;;;;;;177.75;62.30;;;;;;;19.77;57.11;101918.66;5011630;28;20061;-75
2023/06/02 08:02:43;;;;;;;189.20;64.35;;;;;;;19.95;57.33;101924.28;5010544;28;20028;-78
2023/06/02 08:05:09;;;;;;;191.30;62.78;;;;;;;20.19;55.38;101916.31;5009426;28;20018;-77
2023/06/02 08:07:35;;;;;;;194.23;65.85;;;;;;;20.29;53.47;101917.72;5013585;28;20113;-77
2023/06/02 08:10:00;;;;;;;186.07;63.60;;;;;;;19.97;53.21;101921.56;5022771;28;20041;-78
2023/06/02 08:12:25;;;;;;;191.32;66.20;;;;;;;19.77;53.14;101920.47;5000943;28;20510;-76
2023/06/02 08:14:51;;;;;;;184.77;64.88;;;;;;;19.56;53.08;101924.72;4997614;28;20030;-75
2023/06/02 08:17:16;;;;;;;176.15;63.53;;;;;;;19.38;54.29;101929.72;5012670;28;20022;-75
2023/06/02 08:19:41;;;;;;;191.10;64.93;;;;;;;19.53;53.86;101940.72;4993929;28;20033;-75
2023/06/02 08:22:09;;;;;;;179.75;62.83;;;;;;;19.54;51.90;101929.22;5009941;28;20518;-76
2023/06/02 08:24:36;;;;;;;196.35;66.80;;;;;;;19.54;52.31;101939.81;5026530;28;20479;-75
2023/06/02 08:27:03;;;;;;;183.88;63.05;;;;;;;19.61;51.80;101936.03;5006679;28;20037;-77
2023/06/02 08:29:30;;;;;;;180.70;63.47;;;;;;;19.54;52.15;101931.88;5016285;28;20029;-76
2023/06/02 08:31:55;;;;;;;178.38;61.67;;;;;;;19.41;52.59;101934.94;4996040;28;20030;-76
2023/06/02 08:34:21;;;;;;;194.98;66.20;;;;;;;19.23;52.20;101946.13;4996199;28;20100;-76
2023/06/02 08:36:56;;;;;;;184.95;64.93;;;;;;;19.04;52.89;101953.81;5005695;28;20035;-75
2023/06/02 08:39:23;;;;;;;178.38;62.72;;;;;;;18.90;53.19;101948.94;4997347;28;20540;-76
2023/06/02 08:41:50;;;;;;;190.45;64.82;;;;;;;18.82;53.70;101945.66;5012375;28;20517;-76
2023/06/02 08:44:16;;;;;;;194.85;65.68;;;;;;;18.92;53.52;101949.75;5011878;28;20053;-75
2023/06/02 08:46:42;;;;;;;191.90;66.00;;;;;;;19.11;51.66;101955.34;5015407;28;20087;-76
2023/06/02 08:49:08;;;;;;;196.73;65.25;;;;;;;19.14;52.34;101954.38;5016806;28;20030;-75
2023/06/02 08:51:36;;;;;;;190.13;64.13;;;;;;;19.06;52.10;101960.78;5005104;28;20030;-75
2023/06/02 08:54:02;;;;;;;207.32;68.43;;;;;;;19.01;52.18;101972.44;5008178;28;20026;-75
2023/06/02 08:56:29;;;;;;;181.50;64.80;;;;;;;18.93;51.90;101954.16;5029630;28;20462;-76
2023/06/02 08:58:54;;;;;;;179.18;62.42;;;;;;;19.02;52.17;101958.28;5031335;28;20696;-73
2023/06/02 09:01:20;;;;;;;186.82;64.07;;;;;;;19.33;51.60;101960.78;5009110;28;20038;-75
2023/06/02 09:03:46;;;;;;;184.38;63.63;;;;;;;19.94;49.81;101957.00;5008334;28;20029;-74
2023/06/02 09:06:28;;;;;;;188.93;71.10;;;;;;;20.57;48.79;101954.69;5009524;28;20022;-74
2023/06/02 09:08:56;;;;;;;198.90;63.90;;;;;;;20.30;48.80;101959.25;5007055;28;20047;-75
2023/06/02 09:11:22;;;;;;;195.23;71.88;;;;;;;19.86;50.43;101961.72;5022044;28;20483;-74
2023/06/02 09:13:47;;;;;;;190.90;65.80;;;;;;;19.47;51.21;101963.00;5023429;28;20033;-73
2023/06/02 09:16:13;;;;;;;180.65;68.32;;;;;;;19.17;51.38;101970.16;5011669;28;20032;-73
2023/06/02 09:18:38;;;;;;;199.73;67.07;;;;;;;18.96;52.40;101975.22;5010708;28;20108;-73
2023/06/02 09:21:03;;;;;;;195.52;65.38;;;;;;;18.85;52.31;101978.16;5022043;28;20034;-74
2023/06/02 09:23:43;;;;;;;186.55;63.45;;;;;;;18.86;53.51;101973.75;5025049;28;20026;-77
2023/06/02 09:26:19;;;;;;;182.48;63.20;;;;;;;18.89;53.89;101984.28;5024665;28;20056;-79
2023/06/02 09:28:44;;;;;;;190.55;63.78;;;;;;;18.87;53.97;101973.72;5006712;28;20479;-77
2023/06/02 09:31:11;;;;;;;185.43;63.08;;;;;;;18.94;53.70;101978.81;5023236;28;20056;-78
2023/06/02 09:33:37;;;;;;;200.95;69.93;;;;;;;19.03;53.75;101984.72;5005623;28;20645;-76
2023/06/02 09:36:04;;;;;;;187.05;73.95;;;;;;;19.07;53.83;101980.19;5006652;28;20040;-78
2023/06/02 09:38:42;;;;;;;188.43;63.92;;;;;;;19.14;53.87;101981.75;4998954;28;20396;-79
2023/06/02 09:41:15;;;;;;;188.63;72.80;;;;;;;19.21;53.61;101982.38;5012915;28;20021;-77
2023/06/02 09:43:41;;;;;;;183.50;66.25;;;;;;;19.27;53.17;101978.69;5015988;28;20068;-81
2023/06/02 09:46:06;;;;;;;188.68;66.70;;;;;;;19.33;53.42;101983.78;5014527;28;20044;-78
2023/06/02 09:48:34;;;;;;;178.90;66.63;;;;;;;19.44;53.03;101986.94;5008701;28;20025;-80
2023/06/02 09:51:00;;;;;;;196.60;81.75;;;;;;;19.64;52.61;101986.28;4993419;28;20030;-78
2023/06/02 09:53:25;;;;;;;185.02;84.32;;;;;;;19.83;51.80;101989.19;4993608;28;20454;-77
2023/06/02 09:55:51;;;;;;;182.70;66.13;;;;;;;19.96;51.35;101992.31;5010088;28;20380;-77
2023/06/02 09:58:17;;;;;;;183.80;65.45;;;;;;;19.94;51.18;101991.47;5011693;28;20394;-78
2023/06/02 10:00:42;;;;;;;191.35;68.28;;;;;;;19.86;51.62;102005.00;4995433;28;20029;-79
2023/06/02 10:03:07;;;;;;;189.95;94.13;;;;;;;19.80;52.07;101999.03;5012979;28;20071;-77
2023/06/02 10:05:38;;;;;;;181.48;66.30;;;;;;;19.73;52.05;101998.38;5007651;28;20042;-78
2023/06/02 10:08:30;;;;;;;198.90;69.53;;;;;;;19.71;51.88;102001.03;4986880;28;20038;-78
2023/06/02 10:11:14;;;;;;;182.27;65.68;;;;;;;19.74;51.73;102002.72;5009916;28;20045;-77
2023/06/02 10:13:59;;;;;;;188.88;66.95;;;;;;;19.83;51.83;102005.09;5011486;28;20034;-78
2023/06/02 10:16:49;;;;;;;189.60;68.00;;;;;;;20.01;51.19;102000.94;5021103;28;20028;-78
2023/06/02 10:19:26;;;;;;;193.60;69.53;;;;;;;20.41;49.92;101999.50;5019244;28;20048;-78
2023/06/02 10:21:55;;;;;;;179.48;64.25;;;;;;;20.80;49.14;101991.91;5024500;28;20097;-77
2023/06/02 10:24:31;;;;;;;199.23;69.10;;;;;;;20.90;48.79;102001.25;5022831;28;20078;-77
2023/06/02 10:27:17;;;;;;;183.02;65.80;;;;;;;20.72;49.04;101995.75;5024206;28;20026;-78
2023/06/02 10:29:43;;;;;;;181.85;65.53;;;;;;;20.53;49.38;101989.34;5026000;28;20195;-78
2023/06/02 10:32:42;;;;;;;177.85;65.05;;;;;;;20.44;49.77;101996.72;5023489;28;20017;-78
2023/06/02 10:35:08;;;;;;;191.90;69.65;;;;;;;20.49;49.66;102001.00;5013172;28;20022;-79
2023/06/02 10:37:34;;;;;;;187.30;68.20;;;;;;;20.65;49.26;101993.34;4999108;28;20028;-74
2023/06/02 10:39:59;;;;;;;180.70;67.10;;;;;;;20.89;48.74;101989.75;5017907;28;20026;-77
2023/06/02 10:42:26;;;;;;;178.75;68.60;;;;;;;21.02;48.17;101991.94;5013464;28;20434;-78
2023/06/02 10:44:54;;;;;;;183.05;67.47;;;;;;;21.13;48.02;102005.66;5008856;28;20022;-78
2023/06/02 10:47:19;;;;;;;179.48;67.88;;;;;;;21.27;47.40;101999.81;4997616;28;20026;-78
2023/06/02 10:50:09;;;;;;;196.10;70.28;;;;;;;21.28;47.25;102004.16;5010061;28;20048;-75
2023/06/02 10:53:00;;;;;;;184.57;67.30;;;;;;;21.19;47.51;102005.41;5009148;28;20042;-80
2023/06/02 10:55:27;;;;;;;187.18;66.80;;;;;;;21.20;47.37;102012.47;5024184;28;20033;-78
2023/06/02 10:58:01;;;;;;;193.82;68.25;;;;;;;21.13;47.32;102003.00;5005689;28;20029;-77
2023/06/02 11:00:32;;;;;;;190.82;65.18;;;;;;;21.15;47.42;102002.97;5009270;28;20022;-78
2023/06/02 11:02:58;;;;;;;183.32;64.35;;;;;;;21.06;48.22;101999.72;5014870;28;20397;-79